Pleasant Plains, Illinois
Current Conditions -  °F | °C
As of 9:52 AM on Friday 28 Nov 2014 (Local Time) from KSPI Reporting Station
Clear Clear  
Wind Chill: 17°   Ceiling: Unl
Heat Index: 30°   Visibility: 9mi
Dew Point: 25°   Wind: 23mph
Humidity: 82%   Direction: 170°S
Pressure: 30.17"   Gusts: 26mph
Location:  39.87°N, 89.92°W
Report Text: KSPI 281552Z 17020G23KT 9SM CLR M01/M04 A3017 RMK AO2 SLP225 T10111039
Loading
Personal Weather Stations






























Interactive Weather Map New forecast layout! Learn more

10-Day Weather Forecast

Advertisements
Track Severe Weather on mobile